Time;durP1;ratioP1;P1;durP2;ratioP2;P2;SDS_P1;SDS_P2;PMS_P1;PMS_P2;Temp;Humidity;BMP_temperature;BMP_pressure;BME280_temperature;BME280_humidity;BME280_pressure;Samples;Min_cycle;Max_cycle;Signal;HPM_P1;HPM_P2
2022/08/19 00:00:42;;;;;;;8.13;4.17;;;;;;;19.06;100.00;98916.84;1724789;82;20986;-71
2022/08/19 00:03:08;;;;;;;6.35;4.45;;;;;;;19.04;100.00;98914.33;1724687;82;21018;-71
2022/08/19 00:05:35;;;;;;;7.50;4.97;;;;;;;19.03;100.00;98918.41;1724623;82;20967;-71
2022/08/19 00:08:02;;;;;;;7.90;4.97;;;;;;;19.02;100.00;98925.48;1724694;83;21107;-71
2022/08/19 00:10:29;;;;;;;10.53;4.50;;;;;;;19.02;100.00;98931.23;1724534;82;21584;-71
2022/08/19 00:12:57;;;;;;;7.28;4.37;;;;;;;19.00;100.00;98924.77;1706805;83;20951;-71
2022/08/19 00:15:24;;;;;;;7.67;4.75;;;;;;;19.00;100.00;98922.62;1724756;83;21014;-71
2022/08/19 00:17:50;;;;;;;9.25;4.60;;;;;;;19.00;100.00;98920.82;1724660;83;20994;-71
2022/08/19 00:20:20;;;;;;;6.83;4.60;;;;;;;19.02;100.00;98918.89;1724696;83;21134;-71
2022/08/19 00:22:47;;;;;;;6.80;4.28;;;;;;;19.04;100.00;98920.08;1724624;83;20943;-71
2022/08/19 00:25:15;;;;;;;5.45;4.12;;;;;;;19.04;100.00;98918.77;1724587;83;21010;-71
2022/08/19 00:27:41;;;;;;;10.05;4.35;;;;;;;19.03;100.00;98923.69;1706450;83;21014;-71
2022/08/19 00:30:10;;;;;;;10.00;5.05;;;;;;;19.02;100.00;98922.84;1724643;82;21486;-71
2022/08/19 00:32:38;;;;;;;6.83;4.33;;;;;;;18.99;100.00;98928.38;1724566;82;21817;-71
2022/08/19 00:35:08;;;;;;;8.80;4.40;;;;;;;18.97;100.00;98925.06;1724573;82;20998;-71
2022/08/19 00:37:35;;;;;;;7.85;4.50;;;;;;;18.94;100.00;98918.73;1724614;81;21005;-71
2022/08/19 00:40:02;;;;;;;5.83;4.12;;;;;;;18.94;100.00;98929.27;1727611;82;21163;-71
2022/08/19 00:42:29;;;;;;;6.03;4.50;;;;;;;18.91;100.00;98925.56;1727731;82;21517;-71
2022/08/19 00:44:56;;;;;;;11.33;4.62;;;;;;;18.88;100.00;98930.61;1727656;83;21118;-72
2022/08/19 00:47:23;;;;;;;6.72;4.60;;;;;;;18.88;100.00;98925.82;1727718;83;20994;-71
2022/08/19 00:49:52;;;;;;;8.38;4.30;;;;;;;18.85;100.00;98920.32;1727932;82;21632;-71
2022/08/19 00:52:24;;;;;;;8.88;4.85;;;;;;;18.84;100.00;98917.81;1727649;82;21045;-72
2022/08/19 00:54:51;;;;;;;6.92;4.62;;;;;;;18.83;100.00;98920.09;1725490;83;21014;-71
2022/08/19 00:57:21;;;;;;;8.83;4.33;;;;;;;18.82;100.00;98921.06;1727643;83;21122;-71
2022/08/19 00:59:48;;;;;;;7.67;4.25;;;;;;;18.81;100.00;98929.44;1727709;82;21022;-71
2022/08/19 01:02:16;;;;;;;5.75;4.15;;;;;;;18.80;100.00;98925.13;1711414;83;20955;-71
2022/08/19 01:04:42;;;;;;;11.35;4.78;;;;;;;18.80;100.00;98922.50;1727947;82;21054;-71
2022/08/19 01:07:09;;;;;;;12.37;4.60;;;;;;;18.79;100.00;98924.78;1727696;82;21073;-71
2022/08/19 01:09:37;;;;;;;8.28;5.25;;;;;;;18.77;100.00;98925.42;1727675;82;21555;-71
2022/08/19 01:12:04;;;;;;;5.97;4.17;;;;;;;18.75;100.00;98926.50;1727803;83;20971;-71
2022/08/19 01:14:30;;;;;;;16.05;5.08;;;;;;;18.74;100.00;98924.35;1687464;83;21037;-71
2022/08/19 01:16:59;;;;;;;7.87;4.65;;;;;;;18.73;100.00;98924.00;1727751;82;20979;-71
2022/08/19 01:19:35;;;;;;;9.65;4.90;;;;;;;18.69;100.00;98920.42;1727684;83;20957;-71
2022/08/19 01:22:07;;;;;;;11.55;5.92;;;;;;;18.66;100.00;98912.77;1711769;83;21153;-71
2022/08/19 01:24:34;;;;;;;10.40;5.03;;;;;;;18.63;100.00;98918.29;1708619;82;20978;-71
2022/08/19 01:27:05;;;;;;;11.22;4.97;;;;;;;18.58;100.00;98906.81;1727666;83;21414;-72
2022/08/19 01:29:32;;;;;;;8.65;4.85;;;;;;;18.55;100.00;98910.53;1711702;83;21053;-71
2022/08/19 01:31:59;;;;;;;9.45;4.90;;;;;;;18.52;100.00;98904.68;1727711;82;21040;-71
2022/08/19 01:34:28;;;;;;;10.50;4.72;;;;;;;18.50;100.00;98906.60;1727746;82;20939;-72
2022/08/19 01:36:54;;;;;;;12.95;4.80;;;;;;;18.48;100.00;98904.58;1727650;82;20939;-72
2022/08/19 01:39:24;;;;;;;9.50;4.37;;;;;;;18.46;100.00;98906.02;1723275;82;21534;-72
2022/08/19 01:41:55;;;;;;;10.20;4.17;;;;;;;18.43;100.00;98911.53;1720505;83;21007;-72
2022/08/19 01:44:23;;;;;;;7.90;4.40;;;;;;;18.41;100.00;98913.92;1720161;83;21022;-72
2022/08/19 01:46:48;;;;;;;9.58;5.37;;;;;;;18.36;100.00;98907.75;1720014;83;21430;-72
2022/08/19 01:49:16;;;;;;;9.88;4.33;;;;;;;18.34;100.00;98908.35;1720197;82;20951;-72
2022/08/19 01:51:43;;;;;;;7.33;4.67;;;;;;;18.31;100.00;98908.60;1720137;83;21006;-72
2022/08/19 01:54:10;;;;;;;6.75;4.35;;;;;;;18.28;100.00;98905.38;1720429;83;21494;-72
2022/08/19 01:56:38;;;;;;;9.43;4.97;;;;;;;18.24;100.00;98908.25;1703917;83;20951;-72
2022/08/19 01:59:10;;;;;;;6.53;4.70;;;;;;;18.22;100.00;98907.54;1720153;83;22150;-72
2022/08/19 02:01:37;;;;;;;6.75;4.08;;;;;;;18.21;100.00;98907.19;1720333;82;20994;-72
2022/08/19 02:04:04;;;;;;;10.05;4.37;;;;;;;18.20;100.00;98911.26;1720096;82;20954;-72
2022/08/19 02:06:32;;;;;;;11.73;4.55;;;;;;;18.18;100.00;98912.73;1720271;83;21502;-72
2022/08/19 02:08:58;;;;;;;11.85;4.35;;;;;;;18.17;100.00;98914.16;1720236;82;21002;-73
2022/08/19 02:11:33;;;;;;;10.28;4.30;;;;;;;18.14;100.00;98915.25;1720202;82;21551;-72
2022/08/19 02:14:01;;;;;;;9.58;4.25;;;;;;;18.11;100.00;98930.45;1720162;82;21097;-72
2022/08/19 02:16:28;;;;;;;8.08;4.55;;;;;;;18.08;100.00;98935.95;1720084;83;21018;-72
2022/08/19 02:18:55;;;;;;;10.93;5.03;;;;;;;18.06;100.00;98942.65;1720177;82;21129;-72
2022/08/19 02:21:22;;;;;;;9.35;5.03;;;;;;;18.03;100.00;98940.27;1720143;83;21062;-72
2022/08/19 02:23:50;;;;;;;6.92;4.50;;;;;;;18.01;100.00;98939.55;1720488;82;21112;-72
2022/08/19 02:26:17;;;;;;;6.83;4.67;;;;;;;17.99;100.00;98939.30;1720140;82;20939;-72
2022/08/19 02:28:45;;;;;;;6.42;3.92;;;;;;;17.99;100.00;98940.63;1720189;82;20959;-72
2022/08/19 02:31:18;;;;;;;14.13;4.70;;;;;;;17.97;100.00;98948.67;1720383;83;21014;-72
2022/08/19 02:33:42;;;;;;;7.50;4.33;;;;;;;17.97;100.00;98946.52;1719811;82;21423;-72
2022/08/19 02:36:09;;;;;;;10.25;4.55;;;;;;;17.97;100.00;98950.46;1720127;83;21103;-72
2022/08/19 02:38:37;;;;;;;31.50;5.35;;;;;;;17.98;100.00;98948.19;1721034;82;21325;-72
2022/08/19 02:41:07;;;;;;;7.45;4.03;;;;;;;17.98;100.00;98946.88;1727615;83;20962;-72
2022/08/19 02:43:38;;;;;;;7.92;5.25;;;;;;;17.98;100.00;98945.08;1727620;83;20994;-72
2022/08/19 02:46:14;;;;;;;5.87;4.67;;;;;;;17.97;100.00;98939.45;1727831;82;21013;-72
2022/08/19 02:48:41;;;;;;;9.65;5.22;;;;;;;17.97;100.00;98949.14;1727510;82;21094;-72
2022/08/19 02:51:07;;;;;;;11.00;4.80;;;;;;;17.95;100.00;98949.75;1727738;82;20986;-72
2022/08/19 02:53:34;;;;;;;11.73;4.28;;;;;;;17.94;100.00;98952.02;1727774;82;20958;-72
2022/08/19 02:56:01;;;;;;;9.68;4.97;;;;;;;17.92;100.00;98951.30;1727739;83;21006;-72
2022/08/19 02:58:28;;;;;;;8.80;4.40;;;;;;;17.90;100.00;98947.47;1711458;82;21030;-72
2022/08/19 03:00:55;;;;;;;12.05;4.67;;;;;;;17.88;100.00;98950.70;1687727;83;21098;-71
2022/08/19 03:03:23;;;;;;;7.60;4.40;;;;;;;17.85;100.00;98947.00;1727741;82;21041;-71
2022/08/19 03:05:50;;;;;;;11.20;4.90;;;;;;;17.84;100.00;98950.11;1727832;82;21122;-72
2022/08/19 03:08:16;;;;;;;8.15;4.30;;;;;;;17.83;100.00;98955.01;1727748;82;21439;-72
2022/08/19 03:10:46;;;;;;;9.48;4.97;;;;;;;17.85;100.00;98958.84;1711541;82;21006;-72
2022/08/19 03:13:14;;;;;;;7.80;4.58;;;;;;;17.85;100.00;98953.58;1727566;82;21132;-71
2022/08/19 03:15:43;;;;;;;8.63;4.60;;;;;;;17.88;100.00;98951.54;1727692;82;21053;-72
2022/08/19 03:18:10;;;;;;;5.97;4.03;;;;;;;17.95;100.00;98942.69;1727726;83;21013;-71
2022/08/19 03:20:49;;;;;;;9.30;4.45;;;;;;;18.07;100.00;98946.95;1727758;82;20963;-72
2022/08/19 03:23:16;;;;;;;6.08;4.58;;;;;;;18.19;100.00;98952.53;1727758;82;20998;-72
2022/08/19 03:25:46;;;;;;;5.87;4.22;;;;;;;18.34;100.00;98944.38;1727824;82;20951;-72
2022/08/19 03:28:13;;;;;;;7.67;3.90;;;;;;;18.48;100.00;98949.34;1727676;82;20990;-72
2022/08/19 03:30:41;;;;;;;8.95;4.03;;;;;;;18.65;100.00;98961.14;1727772;82;21002;-72
2022/08/19 03:33:08;;;;;;;11.73;4.10;;;;;;;18.82;100.00;98961.41;1727714;82;20995;-72
2022/08/19 03:35:38;;;;;;;5.15;3.70;;;;;;;18.98;100.00;98955.72;1727758;82;20958;-72
2022/08/19 03:38:06;;;;;;;5.35;4.37;;;;;;;19.16;100.00;98958.60;1727736;82;21779;-72
2022/08/19 03:40:35;;;;;;;6.72;4.00;;;;;;;19.34;100.00;98958.84;1717280;82;20995;-72
2022/08/19 03:43:02;;;;;;;6.03;3.67;;;;;;;19.52;100.00;98953.33;1681191;83;21022;-72
2022/08/19 03:45:29;;;;;;;9.55;4.12;;;;;;;19.74;100.00;98957.09;1714828;82;21033;-72
2022/08/19 03:47:55;;;;;;;9.00;3.87;;;;;;;19.98;100.00;98958.07;1704483;83;20944;-72
2022/08/19 03:50:22;;;;;;;7.45;4.47;;;;;;;20.22;98.30;98965.59;1704670;83;21152;-72
2022/08/19 03:52:52;;;;;;;7.62;4.10;;;;;;;20.48;96.83;98976.52;1704624;83;21065;-72
2022/08/19 03:55:19;;;;;;;7.28;4.53;;;;;;;20.74;94.30;98987.37;1714732;83;21007;-70
2022/08/19 03:57:47;;;;;;;8.60;4.28;;;;;;;20.95;92.72;98999.95;1714871;82;20971;-71
2022/08/19 04:00:15;;;;;;;8.28;4.65;;;;;;;21.20;91.05;98999.86;1714870;83;20991;-71
2022/08/19 04:02:43;;;;;;;9.50;4.37;;;;;;;21.40;89.17;98997.52;1714950;82;21331;-71
2022/08/19 04:05:09;;;;;;;9.00;3.90;;;;;;;21.56;87.69;98998.27;1714754;82;21025;-71
2022/08/19 04:07:37;;;;;;;8.13;3.92;;;;;;;21.76;86.25;98989.27;1714850;82;20915;-71
2022/08/19 04:10:05;;;;;;;6.05;3.92;;;;;;;21.88;85.19;98989.41;1714854;82;20971;-71
2022/08/19 04:12:32;;;;;;;9.50;4.62;;;;;;;22.04;84.51;98990.61;1714881;82;21042;-71
2022/08/19 04:14:58;;;;;;;5.65;3.87;;;;;;;22.29;83.69;99003.16;1714811;83;21187;-71
2022/08/19 04:17:25;;;;;;;7.85;4.37;;;;;;;22.47;81.48;99008.48;1714736;82;20996;-71
2022/08/19 04:19:52;;;;;;;8.00;4.50;;;;;;;22.54;81.71;99005.09;1714798;82;20958;-72
2022/08/19 04:22:18;;;;;;;8.80;4.22;;;;;;;22.79;81.08;99004.00;1704478;83;21006;-71
2022/08/19 04:24:45;;;;;;;9.83;4.58;;;;;;;23.08;79.97;99005.08;1714830;83;21458;-71
2022/08/19 04:27:11;;;;;;;8.10;4.12;;;;;;;23.24;77.44;98998.07;1714836;82;21059;-72
2022/08/19 04:29:39;;;;;;;8.58;4.22;;;;;;;23.31;77.85;99005.76;1714782;82;20971;-72
2022/08/19 04:32:06;;;;;;;10.08;4.95;;;;;;;23.56;76.62;99008.61;1714856;83;21002;-72
2022/08/19 04:34:32;;;;;;;12.23;4.83;;;;;;;23.78;74.95;99008.56;1714837;83;20951;-71
2022/08/19 04:36:59;;;;;;;8.00;4.20;;;;;;;23.98;73.75;99010.78;1714838;82;21587;-71
2022/08/19 04:45:03;;;;;;;10.08;5.10;;;;;;;24.13;71.76;98999.56;1714872;83;21003;-71
2022/08/19 04:47:30;;;;;;;9.35;4.95;;;;;;;24.25;70.90;98996.97;1714787;83;21081;-72
2022/08/19 04:49:57;;;;;;;6.70;4.65;;;;;;;24.31;71.21;98988.36;1714867;83;20959;-71
2022/08/19 04:52:24;;;;;;;12.33;4.70;;;;;;;24.41;70.21;98994.34;1704785;83;21108;-71
2022/08/19 04:54:50;;;;;;;6.72;4.20;;;;;;;24.46;70.09;98997.35;1714663;82;21030;-71
2022/08/19 04:57:17;;;;;;;6.83;4.42;;;;;;;24.50;70.61;98997.86;1714828;83;21030;-71
2022/08/19 04:59:45;;;;;;;11.45;4.80;;;;;;;24.67;69.15;98995.06;1714914;82;20963;-71
2022/08/19 05:02:12;;;;;;;8.85;4.40;;;;;;;24.78;69.04;98998.41;1715174;83;21010;-71
2022/08/19 05:04:39;;;;;;;11.03;5.17;;;;;;;24.86;68.18;99005.88;1714837;82;21869;-71
2022/08/19 05:07:07;;;;;;;6.03;4.35;;;;;;;24.82;67.71;99009.86;1714706;82;20939;-71
2022/08/19 05:09:34;;;;;;;7.22;4.33;;;;;;;24.79;67.66;99008.02;1714719;83;21017;-72
2022/08/19 05:12:03;;;;;;;9.85;4.45;;;;;;;24.71;67.37;99006.20;1714687;82;20999;-71
2022/08/19 05:14:29;;;;;;;10.10;4.65;;;;;;;24.64;68.04;99009.17;1711834;83;21040;-72
2022/08/19 05:16:56;;;;;;;11.90;4.72;;;;;;;24.63;67.94;99010.17;1711983;82;21211;-72
2022/08/19 05:23:09;;;;;;;7.65;4.10;;;;;;;24.42;68.10;99001.33;1707677;83;20994;-72
2022/08/19 05:24:46;;;;;;;7.22;5.00;;;;;;;24.13;68.65;99005.72;1705134;83;21030;-74
2022/08/19 05:27:13;;;;;;;8.90;4.72;;;;;;;23.87;70.35;98994.31;1706869;84;37208;-73
2022/08/19 05:29:41;;;;;;;9.05;4.45;;;;;;;23.72;71.38;98999.89;1707112;84;21212;-74
2022/08/19 05:32:09;;;;;;;10.93;4.75;;;;;;;23.58;72.74;99001.32;1686125;84;21114;-73
2022/08/19 05:34:37;;;;;;;14.95;5.00;;;;;;;23.52;73.57;98995.30;1707230;84;21025;-74
2022/08/19 05:37:04;;;;;;;7.95;4.62;;;;;;;23.50;73.46;98990.12;1709400;83;21029;-74
2022/08/19 05:39:33;;;;;;;5.85;4.30;;;;;;;23.46;72.77;98996.72;1712693;82;21045;-74
2022/08/19 05:42:05;;;;;;;10.08;4.90;;;;;;;23.41;72.90;98992.86;1678650;85;21189;-74
2022/08/19 05:44:32;;;;;;;7.30;4.47;;;;;;;23.29;72.73;98989.66;1712401;83;21040;-73
2022/08/19 05:47:01;;;;;;;9.38;4.47;;;;;;;23.15;73.75;98988.90;1711077;83;21592;-74
2022/08/19 05:49:29;;;;;;;11.95;3.90;;;;;;;23.09;74.34;98990.83;1673116;84;21029;-74
2022/08/19 05:51:56;;;;;;;8.73;4.03;;;;;;;23.06;74.65;98992.47;1674040;85;21501;-74
2022/08/19 05:54:23;;;;;;;9.58;4.87;;;;;;;23.00;74.86;98988.59;1673755;85;21222;-74
2022/08/19 05:56:51;;;;;;;6.33;3.90;;;;;;;22.96;74.96;98985.94;1674228;85;21053;-74
2022/08/19 05:59:21;;;;;;;6.62;4.85;;;;;;;22.98;75.77;98987.95;1674211;85;21056;-73
2022/08/19 06:01:52;;;;;;;8.33;4.83;;;;;;;22.98;75.88;98987.42;1674477;85;21079;-73
2022/08/19 06:04:19;;;;;;;9.08;4.97;;;;;;;22.94;75.94;98991.40;1674212;84;21002;-73
2022/08/19 06:06:48;;;;;;;10.43;5.08;;;;;;;22.85;76.34;98987.48;1674282;85;21218;-76
2022/08/19 06:09:17;;;;;;;8.78;5.00;;;;;;;22.79;76.96;98980.14;1656014;85;21044;-73
2022/08/19 06:11:47;;;;;;;5.60;4.40;;;;;;;22.75;77.60;98981.42;1690328;83;21045;-73
2022/08/19 06:14:17;;;;;;;6.40;4.65;;;;;;;22.71;77.83;98983.53;1708332;83;21049;-73
2022/08/19 06:16:45;;;;;;;11.33;4.50;;;;;;;22.68;77.95;98983.84;1708175;84;21418;-73
2022/08/19 06:19:15;;;;;;;7.62;4.35;;;;;;;22.64;78.02;98989.09;1708078;84;21145;-73
2022/08/19 06:21:44;;;;;;;6.80;4.47;;;;;;;22.58;78.10;98994.50;1707942;82;21085;-74
2022/08/19 06:24:14;;;;;;;7.90;5.35;;;;;;;22.53;78.05;98994.14;1708031;82;21025;-74
2022/08/19 06:26:44;;;;;;;12.18;5.47;;;;;;;22.47;78.24;98991.25;1708131;82;20982;-74
2022/08/19 06:29:12;;;;;;;8.25;5.22;;;;;;;22.44;79.48;98990.22;1708481;82;21017;-74
2022/08/19 06:31:42;;;;;;;14.03;4.65;;;;;;;22.43;79.33;98993.85;1708703;84;21427;-74
2022/08/19 06:34:09;;;;;;;11.38;4.83;;;;;;;22.41;80.17;99000.63;1708677;83;20935;-75
2022/08/19 06:36:40;;;;;;;10.25;4.70;;;;;;;22.38;79.05;98997.47;1704745;83;20955;-74
2022/08/19 06:39:10;;;;;;;11.03;4.50;;;;;;;22.36;79.76;98998.11;1714847;82;20967;-74
2022/08/19 06:41:39;;;;;;;11.70;4.87;;;;;;;22.39;79.66;98997.29;1714791;82;20994;-74
2022/08/19 06:44:09;;;;;;;12.33;4.97;;;;;;;22.44;79.51;99002.98;1714959;83;21720;-73
2022/08/19 06:46:37;;;;;;;8.08;4.35;;;;;;;22.46;80.21;99001.02;1703666;83;21018;-74
2022/08/19 06:49:04;;;;;;;13.05;4.60;;;;;;;22.55;80.66;99000.63;1714832;83;21038;-74
2022/08/19 06:51:34;;;;;;;17.00;4.87;;;;;;;22.65;80.23;99005.34;1714010;82;21003;-74
2022/08/19 06:54:01;;;;;;;8.60;4.60;;;;;;;22.74;79.16;99003.13;1714138;83;21031;-73
2022/08/19 06:56:33;;;;;;;8.95;5.20;;;;;;;22.80;78.23;99001.20;1713068;82;21055;-74
2022/08/19 06:59:07;;;;;;;10.13;4.87;;;;;;;22.79;78.07;98995.55;1714490;82;21085;-73
2022/08/19 07:01:37;;;;;;;8.93;4.85;;;;;;;22.78;79.14;98995.73;1713412;83;20951;-74
2022/08/19 07:04:08;;;;;;;11.57;5.25;;;;;;;22.86;79.68;99005.90;1714949;82;20987;-74
2022/08/19 07:06:36;;;;;;;16.23;5.73;;;;;;;22.97;79.72;99009.66;1715141;82;21040;-74
2022/08/19 07:09:05;;;;;;;6.83;4.53;;;;;;;23.07;78.62;99014.02;1704625;83;21726;-74
2022/08/19 07:11:32;;;;;;;6.28;4.87;;;;;;;23.12;76.98;99007.77;1714536;83;20991;-74
2022/08/19 07:14:01;;;;;;;7.33;4.45;;;;;;;23.12;76.91;99013.91;1714289;83;21490;-74
2022/08/19 07:16:28;;;;;;;4.95;4.42;;;;;;;23.12;77.68;99006.45;1714676;83;20959;-74
2022/08/19 07:18:56;;;;;;;6.80;4.90;;;;;;;23.14;76.61;99012.44;1704536;83;20942;-74
2022/08/19 07:21:30;;;;;;;11.50;4.78;;;;;;;23.15;76.59;99001.67;1714819;83;21755;-73
2022/08/19 07:23:58;;;;;;;12.03;5.22;;;;;;;23.19;77.03;99016.27;1714807;82;21478;-74
2022/08/19 07:26:32;;;;;;;6.72;4.83;;;;;;;23.25;76.36;99010.84;1705163;83;20951;-74
2022/08/19 07:29:01;;;;;;;6.35;4.97;;;;;;;23.28;76.52;99007.39;1701527;83;20963;-74
2022/08/19 07:31:29;;;;;;;9.55;4.72;;;;;;;23.33;75.76;99005.11;1715138;83;20963;-74
2022/08/19 07:33:56;;;;;;;9.13;4.67;;;;;;;23.34;74.39;99005.45;1714663;83;21245;-75
2022/08/19 07:36:32;;;;;;;11.65;4.30;;;;;;;23.38;75.17;98995.86;1714668;83;21042;-74
2022/08/19 07:38:58;;;;;;;11.73;4.30;;;;;;;23.45;76.01;99004.84;1687425;83;20963;-74
2022/08/19 07:41:32;;;;;;;9.85;5.15;;;;;;;23.52;74.45;99006.75;1678167;84;21019;-73
2022/08/19 07:43:57;;;;;;;10.05;4.80;;;;;;;23.56;73.63;99005.95;1677729;85;20990;-73
2022/08/19 07:46:24;;;;;;;10.58;4.75;;;;;;;23.63;74.99;99002.98;1678030;84;21551;-74
2022/08/19 07:48:51;;;;;;;14.18;5.20;;;;;;;23.75;74.93;99003.56;1677957;85;21502;-74
2022/08/19 07:51:21;;;;;;;12.80;4.95;;;;;;;23.85;75.37;99002.44;1677079;83;21124;-73
2022/08/19 07:53:49;;;;;;;6.25;4.40;;;;;;;23.95;74.98;99003.16;1678242;85;20974;-73
2022/08/19 07:56:18;;;;;;;13.18;4.50;;;;;;;24.04;73.77;99006.66;1661485;83;21007;-74
2022/08/19 07:58:47;;;;;;;9.20;4.65;;;;;;;24.09;73.44;98997.72;1712374;82;21826;-74
2022/08/19 08:01:18;;;;;;;9.23;4.25;;;;;;;24.15;72.54;99001.08;1713768;82;21025;-73
2022/08/19 08:09:30;;;;;;;10.63;4.37;;;;;;;24.34;71.67;99002.66;1716259;82;20935;-76
2022/08/19 08:12:02;;;;;;;9.30;4.33;;;;;;;24.39;72.00;99001.64;1685704;83;21140;-74
2022/08/19 08:14:36;;;;;;;13.40;4.55;;;;;;;24.49;71.18;99011.66;1675640;85;20992;-74
2022/08/19 08:17:05;;;;;;;9.80;4.12;;;;;;;24.56;69.96;99010.52;1678204;85;21059;-73
2022/08/19 08:19:32;;;;;;;6.97;4.33;;;;;;;24.57;68.94;99022.31;1694135;83;21087;-74
2022/08/19 08:22:02;;;;;;;9.80;4.62;;;;;;;24.58;69.17;99022.62;1697269;82;20935;-73
2022/08/19 08:24:30;;;;;;;12.60;4.70;;;;;;;24.61;68.39;99020.97;1697352;83;21065;-73
2022/08/19 08:26:59;;;;;;;9.03;4.12;;;;;;;24.63;68.46;99015.48;1698723;82;21137;-73
2022/08/19 08:29:28;;;;;;;11.75;4.42;;;;;;;24.68;69.23;99010.02;1694214;83;21037;-73
2022/08/19 08:31:54;;;;;;;16.42;4.35;;;;;;;24.77;69.18;99009.55;1702698;83;21010;-73
2022/08/19 08:34:21;;;;;;;6.87;4.12;;;;;;;24.86;68.32;99015.69;1697198;83;21503;-72
2022/08/19 08:36:48;;;;;;;11.70;4.47;;;;;;;24.92;67.67;99019.86;1697810;83;21160;-73
2022/08/19 08:39:17;;;;;;;8.85;4.05;;;;;;;24.94;67.10;99025.87;1713006;82;21003;-74
2022/08/19 08:42:20;;;;;;;10.13;4.60;;;;;;;24.96;67.73;99033.70;1677317;85;21002;-72
2022/08/19 08:45:06;;;;;;;9.68;4.60;;;;;;;25.00;67.54;99021.20;1713951;83;21100;-74
2022/08/19 08:47:36;;;;;;;9.25;4.20;;;;;;;25.08;67.57;99019.55;1713441;83;21002;-73
2022/08/19 08:50:12;;;;;;;13.45;4.22;;;;;;;25.15;66.46;99024.05;1679845;85;21177;-73
2022/08/19 08:52:46;;;;;;;20.48;5.00;;;;;;;25.24;66.49;99028.35;1704234;83;20995;-73
2022/08/19 08:55:17;;;;;;;9.58;4.78;;;;;;;25.35;66.38;99024.03;1694144;83;21014;-73
2022/08/19 08:57:55;;;;;;;8.43;4.35;;;;;;;25.43;66.49;99021.84;1695133;83;21525;-72
2022/08/19 09:00:30;;;;;;;13.58;4.30;;;;;;;25.52;65.46;99026.66;1698160;83;21014;-76
2022/08/19 09:02:58;;;;;;;9.75;4.15;;;;;;;25.55;64.90;99019.17;1697724;83;21866;-73
2022/08/19 09:05:35;;;;;;;8.45;4.25;;;;;;;25.60;64.86;99030.12;1683964;83;20962;-72
2022/08/19 09:08:13;;;;;;;11.57;3.83;;;;;;;25.62;63.83;99024.63;1709867;83;21011;-73
2022/08/19 09:10:48;;;;;;;9.25;3.77;;;;;;;25.65;63.60;99021.16;1714773;83;21034;-73
2022/08/19 09:13:40;;;;;;;9.93;4.00;;;;;;;25.70;62.12;99017.50;1714733;82;20996;-73
2022/08/19 09:16:20;;;;;;;9.13;3.72;;;;;;;25.71;62.08;99023.16;1714816;82;21287;-74
2022/08/19 09:18:53;;;;;;;13.40;4.62;;;;;;;25.72;61.37;99015.49;1714806;83;20955;-72
2022/08/19 09:21:22;;;;;;;8.35;3.77;;;;;;;25.73;62.96;99017.66;1714438;82;21114;-77
2022/08/19 09:23:49;;;;;;;7.53;3.90;;;;;;;25.82;62.69;99020.61;1709538;82;21449;-73
2022/08/19 09:26:18;;;;;;;12.80;4.37;;;;;;;25.91;62.00;99016.09;1698674;82;20954;-73
2022/08/19 09:28:45;;;;;;;8.83;4.37;;;;;;;25.97;61.46;99024.25;1658924;85;21220;-73
2022/08/19 09:31:13;;;;;;;11.10;4.10;;;;;;;25.97;59.80;99020.25;1678186;85;21058;-73
2022/08/19 09:33:43;;;;;;;13.90;4.80;;;;;;;25.94;60.26;99021.09;1677982;85;21491;-73
2022/08/19 09:36:14;;;;;;;12.73;4.22;;;;;;;25.95;61.25;99018.25;1678156;85;21089;-74
2022/08/19 09:38:42;;;;;;;9.58;3.83;;;;;;;26.00;60.95;99016.38;1660493;83;21172;-74
2022/08/19 09:41:16;;;;;;;10.32;4.87;;;;;;;26.05;61.23;99011.38;1677973;84;21993;-73
2022/08/19 09:43:45;;;;;;;12.37;4.65;;;;;;;26.09;60.66;99017.52;1654502;85;21054;-74
2022/08/19 09:46:12;;;;;;;10.78;4.70;;;;;;;26.10;60.07;99009.02;1658674;85;21070;-73
2022/08/19 09:48:40;;;;;;;12.70;4.58;;;;;;;26.11;60.18;99001.86;1677689;84;21089;-73
2022/08/19 09:51:15;;;;;;;12.07;4.67;;;;;;;26.13;59.39;99006.52;1685256;82;20955;-73
2022/08/19 09:53:41;;;;;;;13.68;4.53;;;;;;;26.19;60.24;99012.46;1693735;83;21315;-73
2022/08/19 09:56:07;;;;;;;13.28;4.65;;;;;;;26.26;59.39;99008.94;1688826;83;21572;-73
2022/08/19 09:58:37;;;;;;;6.53;4.00;;;;;;;26.33;59.96;99005.11;1680052;83;21458;-72
2022/08/19 10:01:06;;;;;;;13.93;4.20;;;;;;;26.42;59.77;99010.20;1691666;83;21002;-73
2022/08/19 10:03:35;;;;;;;9.78;4.05;;;;;;;26.49;58.61;99014.34;1691770;83;21117;-74
2022/08/19 10:06:04;;;;;;;11.43;4.22;;;;;;;26.56;58.48;99020.64;1680489;83;21165;-73
2022/08/19 10:08:34;;;;;;;10.13;3.80;;;;;;;26.60;59.21;99030.43;1680510;85;21034;-73
2022/08/19 10:11:02;;;;;;;13.25;3.80;;;;;;;26.61;58.36;99022.25;1680505;83;21070;-74
2022/08/19 10:13:29;;;;;;;7.55;4.15;;;;;;;26.61;57.80;99011.59;1680465;85;20982;-74
2022/08/19 10:15:59;;;;;;;9.85;3.72;;;;;;;26.62;57.46;99019.92;1679565;83;21167;-74
2022/08/19 10:18:25;;;;;;;9.68;3.80;;;;;;;26.63;57.93;99023.42;1679424;84;21734;-73
2022/08/19 10:21:08;;;;;;;11.22;3.92;;;;;;;26.65;57.40;99038.75;1698499;83;21097;-74
2022/08/19 10:23:39;;;;;;;12.35;3.87;;;;;;;26.66;57.76;99029.73;1679857;85;21023;-73
2022/08/19 10:26:12;;;;;;;9.73;4.20;;;;;;;26.75;57.45;99033.52;1695765;83;20998;-74
2022/08/19 10:28:39;;;;;;;;;;;;;;;26.75;57.45;99033.52;1664737;84;21089;-73
2022/08/19 10:31:16;;;;;;;13.22;3.77;;;;;;;26.85;57.30;99043.95;1704991;83;21336;-73
2022/08/19 10:33:44;;;;;;;6.45;3.65;;;;;;;26.88;57.55;99036.92;1695954;83;21533;-74
2022/08/19 10:36:17;;;;;;;13.80;3.80;;;;;;;26.97;58.05;99047.91;1684809;83;21054;-74
2022/08/19 10:38:46;;;;;;;7.20;3.77;;;;;;;27.02;57.06;99036.67;1695057;82;21007;-72
2022/08/19 10:41:16;;;;;;;6.05;3.92;;;;;;;27.01;56.15;99041.69;1671124;84;21668;-74
2022/08/19 10:43:44;;;;;;;10.68;3.95;;;;;;;26.97;56.07;99034.56;1695314;83;21522;-74
2022/08/19 10:46:17;;;;;;;6.25;3.33;;;;;;;26.96;56.32;99039.58;1712346;82;21047;-73
2022/08/19 10:48:44;;;;;;;8.45;3.70;;;;;;;26.99;56.27;99042.36;1704675;83;21006;-72
2022/08/19 10:53:57;;;;;;;11.90;3.90;;;;;;;27.12;56.17;99039.11;1702102;82;21017;-74
2022/08/19 10:59:13;;;;;;;10.18;4.03;;;;;;;27.22;56.67;99038.34;1705535;82;21419;-73
2022/08/19 11:01:41;;;;;;;5.80;3.40;;;;;;;27.32;57.78;99038.94;1698567;82;21002;-73
2022/08/19 11:04:09;;;;;;;8.53;3.85;;;;;;;27.37;57.45;99037.89;1695958;82;21010;-73
2022/08/19 11:06:38;;;;;;;11.70;3.85;;;;;;;27.37;57.32;99043.23;1693053;83;21084;-72
2022/08/19 11:09:05;;;;;;;8.48;4.08;;;;;;;27.39;56.38;99032.67;1701593;83;21444;-68
2022/08/19 11:11:39;;;;;;;8.85;3.98;;;;;;;27.44;56.27;99032.13;1714628;82;21038;-69
2022/08/19 11:14:01;;;;;;;9.13;3.80;;;;;;;27.47;55.81;99028.27;1709857;82;20991;-70
2022/08/19 11:16:29;;;;;;;11.93;3.72;;;;;;;27.45;55.50;99034.63;1704976;82;21096;-70
2022/08/19 11:18:58;;;;;;;8.73;4.12;;;;;;;27.43;55.97;99041.16;1699946;83;21065;-70
2022/08/19 11:21:31;;;;;;;11.20;3.67;;;;;;;27.42;56.74;99037.66;1699640;83;21539;-69
2022/08/19 11:24:03;;;;;;;9.55;3.65;;;;;;;27.51;56.57;99033.08;1710970;83;20986;-72
2022/08/19 11:26:30;;;;;;;10.65;4.53;;;;;;;27.66;56.25;99035.78;1714375;83;21018;-68
2022/08/19 11:28:58;;;;;;;7.60;3.47;;;;;;;27.77;54.87;99035.34;1709716;83;20983;-69
2022/08/19 11:31:33;;;;;;;10.60;3.83;;;;;;;27.85;54.57;99046.44;1693096;83;21027;-69
2022/08/19 11:34:01;;;;;;;13.90;4.12;;;;;;;27.84;54.86;99040.77;1708338;83;21294;-69
2022/08/19 11:36:28;;;;;;;10.68;3.98;;;;;;;27.67;54.44;99036.94;1686645;85;20963;-70
2022/08/19 11:38:54;;;;;;;9.80;4.10;;;;;;;27.52;54.36;99037.91;1695780;83;21506;-70
2022/08/19 11:41:23;;;;;;;9.23;4.47;;;;;;;27.44;54.55;99035.63;1679581;84;21105;-70
2022/08/19 11:43:53;;;;;;;11.93;3.70;;;;;;;27.44;55.66;99032.97;1700178;83;21089;-71
2022/08/19 11:46:20;;;;;;;8.48;4.15;;;;;;;27.50;54.67;99038.59;1686067;85;21503;-71
2022/08/19 11:48:48;;;;;;;8.68;4.17;;;;;;;27.48;54.13;99037.44;1654273;85;21005;-70
2022/08/19 11:51:21;;;;;;;16.57;4.90;;;;;;;27.42;54.39;99040.83;1704687;83;20998;-70
2022/08/19 11:53:49;;;;;;;13.00;4.35;;;;;;;27.32;54.84;99026.92;1680280;85;21051;-70